Ali Cat — MZCL8 — position and weather

sailwx.info

Track history (hours):
 
Tides and Currents Weather Stations Pressure Air Temp Water Temp Dewpoint Dewpoint Depression Visibility Wind Speed Wind Dir Waves Ship Positions

Ali Cat

Operator: MRCC Clyde

Last reported at 2017-Nov-18 12:38 UTC. Time now 2017-Nov-18 14:19 UTC.
Position N 55°57' W 004°50'.

Length 19 m.

Type: Passenger vessel. MMSI: 235056506.

Date/timePositionNaut miles runAvg speedWind from/ knotsBaromVisibWave heightAir tempDewpointWater temp
2017-Nov-18 12:38N 55°57' W 004°50'210.4
2017-Nov-18 12:29N 55°57' W 004°53'1 0.9
2017-Nov-18 11:22N 55°57' W 004°55'1 1.0
2017-Nov-18 10:27N 55°57' W 004°53'1 1.1
2017-Nov-18 09:33N 55°57' W 004°52'010.9
2017-Nov-18 09:30N 55°57' W 004°52'0 0.5
2017-Nov-18 08:33N 55°57' W 004°52'111.0
2017-Nov-18 08:27N 55°57' W 004°53'1 1.1
2017-Nov-18 07:29N 55°57' W 004°51'0 0.0
2017-Nov-17 21:54N 55°57' W 004°51'0 0.2
2017-Nov-17 20:33N 55°57' W 004°52'111.5
2017-Nov-17 20:29N 55°57' W 004°53'1 1.7
2017-Nov-17 19:36N 55°58' W 004°50'111.7
2017-Nov-17 19:31N 55°57' W 004°52'0 0.4
2017-Nov-17 18:29N 55°57' W 004°53'1 1.4
2017-Nov-17 17:36N 55°58' W 004°51'110.7
2017-Nov-17 17:29N 55°57' W 004°53'2 1.9
2017-Nov-17 16:37N 55°58' W 004°50'210.6
2017-Nov-17 16:27N 55°57' W 004°53'2 1.9
2017-Nov-17 15:11N 55°58' W 004°49'210.7
2017-Nov-17 15:00N 55°57' W 004°52'1 0.9
2017-Nov-17 14:06N 55°57' W 004°51'210.5
2017-Nov-17 13:57N 55°57' W 004°54'2 1.1
2017-Nov-17 12:34N 55°57' W 004°51'111.1
2017-Nov-17 12:29N 55°57' W 004°53'0 0.4
2017-Nov-17 11:31N 55°57' W 004°52'011.3
2017-Nov-17 11:30N 55°57' W 004°53'0 0.1
2017-Nov-17 10:30N 55°57' W 004°53'1 0.9
2017-Nov-17 09:35N 55°58' W 004°51'111.2
2017-Nov-17 09:29N 55°57' W 004°53'0 0.5
2017-Nov-17 08:31N 55°57' W 004°52'011.5
2017-Nov-17 08:30N 55°57' W 004°53'1 0.7
2017-Nov-17 07:28N 55°57' W 004°51'0 0.0
2017-Nov-16 21:54N 55°57' W 004°51'0 0.1
2017-Nov-16 20:34N 55°58' W 004°51'111.3
2017-Nov-16 20:29N 55°57' W 004°53'1 1.0
2017-Nov-16 19:34N 55°58' W 004°51'111.3
2017-Nov-16 19:27N 55°57' W 004°53'0 0.2
2017-Nov-16 18:28N 55°57' W 004°53'0 0.5
2017-Nov-16 17:30N 55°57' W 004°52'0 0.3
2017-Nov-16 16:29N 55°57' W 004°53'1 0.2
2017-Nov-16 12:34N 55°57' W 004°51'110.5
2017-Nov-16 12:28N 55°57' W 004°53'1 0.5
2017-Nov-16 11:26N 55°57' W 004°54'1 1.6
2017-Nov-16 10:35N 55°57' W 004°51'210.9
2017-Nov-16 10:26N 55°57' W 004°54'1 1.1
2017-Nov-16 09:31N 55°57' W 004°53'011.1
2017-Nov-16 09:30N 55°57' W 004°53'1 1.6
2017-Nov-16 08:37N 55°58' W 004°51'211.2
2017-Nov-16 08:26N 55°57' W 004°54'2 2.0
2017-Nov-16 07:30N 55°58' W 004°51'0 0.0
2017-Nov-15 21:53N 55°58' W 004°51'1 0.4
2017-Nov-15 19:29N 55°57' W 004°53'1 1.0
2017-Nov-15 18:23N 55°57' W 004°54'1 0.8
2017-Nov-15 17:27N 55°57' W 004°53'0 0.4
2017-Nov-15 16:25N 55°57' W 004°54'1 0.9
2017-Nov-15 15:03N 55°57' W 004°52'110.3
2017-Nov-15 14:57N 55°57' W 004°53'2 2.8
2017-Nov-15 14:11N 55°58' W 004°50'2 9.9
2017-Nov-15 14:00N 55°57' W 004°53'0 0.3
2017-Nov-15 12:27N 55°57' W 004°53'1 1.6
2017-Nov-15 11:36N 55°57' W 004°51'110.1
2017-Nov-15 11:30N 55°57' W 004°53'2 1.8
2017-Nov-15 10:39N 55°58' W 004°50'210.4
2017-Nov-15 10:28N 55°57' W 004°53'2 2.5
2017-Nov-15 09:40N 55°58' W 004°50'210.6
2017-Nov-15 09:30N 55°57' W 004°53'1 1.5
2017-Nov-15 08:38N 55°58' W 004°50'110.4
2017-Nov-15 08:30N 55°57' W 004°53'1 0.7
2017-Nov-15 07:29N 55°57' W 004°52'  
Track history (hours):
 
Tides and Currents Weather Stations Pressure Air Temp Water Temp Dewpoint Dewpoint Depression Visibility Wind Speed Wind Dir Waves Ship Positions

Ali Cat

Operator: MRCC Clyde

Last reported at 2017-Nov-18 12:38 UTC. Time now 2017-Nov-18 14:19 UTC.
Position N 55°57' W 004°50'.

Length 19 m.

Type: Passenger vessel. MMSI: 235056506.

Date/timePositionNaut miles runAvg speedWind from/ knotsBaromVisibWave heightAir tempDewpointWater temp
2017-Nov-18 12:38N 55°57' W 004°50'210.4
2017-Nov-18 12:29N 55°57' W 004°53'1 0.9
2017-Nov-18 11:22N 55°57' W 004°55'1 1.0
2017-Nov-18 10:27N 55°57' W 004°53'1 1.1
2017-Nov-18 09:33N 55°57' W 004°52'010.9
2017-Nov-18 09:30N 55°57' W 004°52'0 0.5
2017-Nov-18 08:33N 55°57' W 004°52'111.0
2017-Nov-18 08:27N 55°57' W 004°53'1 1.1
2017-Nov-18 07:29N 55°57' W 004°51'0 0.0
2017-Nov-17 21:54N 55°57' W 004°51'0 0.2
2017-Nov-17 20:33N 55°57' W 004°52'111.5
2017-Nov-17 20:29N 55°57' W 004°53'1 1.7
2017-Nov-17 19:36N 55°58' W 004°50'111.7
2017-Nov-17 19:31N 55°57' W 004°52'0 0.4
2017-Nov-17 18:29N 55°57' W 004°53'1 1.4
2017-Nov-17 17:36N 55°58' W 004°51'110.7
2017-Nov-17 17:29N 55°57' W 004°53'2 1.9
2017-Nov-17 16:37N 55°58' W 004°50'210.6
2017-Nov-17 16:27N 55°57' W 004°53'2 1.9
2017-Nov-17 15:11N 55°58' W 004°49'210.7
2017-Nov-17 15:00N 55°57' W 004°52'1 0.9
2017-Nov-17 14:06N 55°57' W 004°51'210.5
2017-Nov-17 13:57N 55°57' W 004°54'2 1.1
2017-Nov-17 12:34N 55°57' W 004°51'111.1
2017-Nov-17 12:29N 55°57' W 004°53'0 0.4
2017-Nov-17 11:31N 55°57' W 004°52'011.3
2017-Nov-17 11:30N 55°57' W 004°53'0 0.1
2017-Nov-17 10:30N 55°57' W 004°53'1 0.9
2017-Nov-17 09:35N 55°58' W 004°51'111.2
2017-Nov-17 09:29N 55°57' W 004°53'0 0.5
2017-Nov-17 08:31N 55°57' W 004°52'011.5
2017-Nov-17 08:30N 55°57' W 004°53'1 0.7
2017-Nov-17 07:28N 55°57' W 004°51'0 0.0
2017-Nov-16 21:54N 55°57' W 004°51'0 0.1
2017-Nov-16 20:34N 55°58' W 004°51'111.3
2017-Nov-16 20:29N 55°57' W 004°53'1 1.0
2017-Nov-16 19:34N 55°58' W 004°51'111.3
2017-Nov-16 19:27N 55°57' W 004°53'0 0.2
2017-Nov-16 18:28N 55°57' W 004°53'0 0.5
2017-Nov-16 17:30N 55°57' W 004°52'0 0.3
2017-Nov-16 16:29N 55°57' W 004°53'1 0.2
2017-Nov-16 12:34N 55°57' W 004°51'110.5
2017-Nov-16 12:28N 55°57' W 004°53'1 0.5
2017-Nov-16 11:26N 55°57' W 004°54'1 1.6
2017-Nov-16 10:35N 55°57' W 004°51'210.9
2017-Nov-16 10:26N 55°57' W 004°54'1 1.1
2017-Nov-16 09:31N 55°57' W 004°53'011.1
2017-Nov-16 09:30N 55°57' W 004°53'1 1.6
2017-Nov-16 08:37N 55°58' W 004°51'211.2
2017-Nov-16 08:26N 55°57' W 004°54'2 2.0
2017-Nov-16 07:30N 55°58' W 004°51'0 0.0
2017-Nov-15 21:53N 55°58' W 004°51'1 0.4
2017-Nov-15 19:29N 55°57' W 004°53'1 1.0
2017-Nov-15 18:23N 55°57' W 004°54'1 0.8
2017-Nov-15 17:27N 55°57' W 004°53'0 0.4
2017-Nov-15 16:25N 55°57' W 004°54'1 0.9
2017-Nov-15 15:03N 55°57' W 004°52'110.3
2017-Nov-15 14:57N 55°57' W 004°53'2 2.8
2017-Nov-15 14:11N 55°58' W 004°50'2 9.9
2017-Nov-15 14:00N 55°57' W 004°53'0 0.3
2017-Nov-15 12:27N 55°57' W 004°53'1 1.6
2017-Nov-15 11:36N 55°57' W 004°51'110.1
2017-Nov-15 11:30N 55°57' W 004°53'2 1.8
2017-Nov-15 10:39N 55°58' W 004°50'210.4
2017-Nov-15 10:28N 55°57' W 004°53'2 2.5
2017-Nov-15 09:40N 55°58' W 004°50'210.6
2017-Nov-15 09:30N 55°57' W 004°53'1 1.5
2017-Nov-15 08:38N 55°58' W 004°50'110.4
2017-Nov-15 08:30N 55°57' W 004°53'1 0.7
2017-Nov-15 07:29N 55°57' W 004°52'  

Dump ship's entire track history